ADDS TAF Board (Experimental) INFO Settings
IDs: Format: Expanded Condensed

KCLE - Cleveland/Hopkins In, OH, US

Issued at 0807 UTC 30 Jun 2015
Updated at: 1000 UTC 30 Jun 2015
Time0951Z 30/10Z 30/11Z 30/12Z 30/13Z 30/14Z 30/15Z 30/16Z 30/17Z 30/18Z 30/19Z 30/20Z 30/21Z 30/22Z
Type OBS PRVL PRVL PRVL PRVL PRVL PRVL PRVL PRVL PRVL PRVL
  [TEMP]  
PRVL
  [TEMP]  
PRVL
  [TEMP]  
PRVL
VIS 10 >6 >6 >6 >6 >6 >6 >6 >6 >6 >6
  [4]  
>6
  [4]  
>6
  [4]  
>6
CIG 17 35 35 35 35 35 35 35 35 35 30
  [20]  
30
  [20]  
30
  [20]  
30
Cover OVC OVC OVC OVC OVC OVC OVC OVC OVC OVC OVC
  [OVC]  
OVC
  [OVC]  
OVC
  [OVC]  
OVC
FltCat MVFR VFR VFR VFR VFR VFR VFR VFR VFR VFR MVFR
  [MVFR]  
MVFR
  [MVFR]  
MVFR
  [MVFR]  
MVFR
WX -- -- -- -- -- -- -- -- -- -- -SHRA
  [-TSRA]  
-SHRA
  [-TSRA]  
-SHRA
  [-TSRA]  
-SHRA
WDir 210 VRB VRB VRB VRB 200 200 200 200 200 220
[220]
220
[220]
220
[220]
220
WSpd 6 3 3 3 3 10 10 10 10 10 10
  [10]  
10
  [10]  
10
  [10]  
10
WGst -- -- -- -- -- -- -- -- -- -- --
  [--]  
--
  [--]  
--
  [--]  
--
R06/24
XWnd -2 VRB VRB VRB VRB -5 -5 -5 -5 -5 -2 -2 -2 -2
XGst -- -- -- -- -- -- -- -- -- -- 0 0 0 --
HWnd -6 VRB VRB VRB VRB -9 -9 -9 -9 -9 -10 -10 -10 -10
HGst -- -- -- -- -- -- -- -- -- -- 0 0 0 --
R10/28
XWnd -5 VRB VRB VRB VRB -10 -10 -10 -10 -10 -8 -8 -8 -8
XGst -- -- -- -- -- -- -- -- -- -- 0 0 0 --
HWnd -3 VRB VRB VRB VRB -3 -3 -3 -3 -3 -6 -6 -6 -6
HGst -- -- -- -- -- -- -- -- -- -- 0 0 0 --

NOTE: TEMPO conditions in [brackets]. Keep in mind TEMPO conditions might be better (lower impact) than prevailing conditions.

Raw TAF
KCLE 300807Z 3008/0112 VRB03KT P6SM OVC035
  FM301400 20010KT P6SM OVC035
  FM301900 22010KT P6SM -SHRA OVC030
  TEMPO 3019/3022 4SM -TSRA OVC020CB
  FM010000 22005KT P6SM OVC100
  FM010600 23007KT P6SM OVC015


Raw METAR
KCLE 300951Z 21006KT 10SM OVC017 17/16 A2981 RMK AO2 SLP091 T01720156
KCLE 300851Z 00000KT 10SM OVC015 17/16 A2981 RMK AO2 SLP090 T01670156 56006
KCLE 300823Z 00000KT 10SM BKN016 BKN024 OVC040 17/16 A2982 RMK AO2 T01670156
KCLE 300751Z 00000KT 10SM SCT017 OVC034 17/16 A2981 RMK AO2 SLP091 T01670156
KCLE 300714Z 17004KT 10SM SCT024 BKN034 16/15 A2981 RMK AO2 T01610150
KCLE 300651Z 17005KT 10SM OVC024 17/15 A2982 RMK AO2 SLP093 T01670150

METAR Board
Radar Display
Forecast Discussion

TAF Board Legend

Potential Impact
Threat None Slight Moderate High
Visibility (sm) ≥5.1 5.1>X≥3 3>X≥1 <1
Ceiling (100 ft) ≥30.1 30.1>X≥10 10>X≥5 <5
Wind Speed (kt) <10 10≤X<20 20≤X<30 ≥30
Wind Gust (kt) <15 15≤X<25 25≤X<35 ≥35
Weather No Wx Reported VCTS,-TS,-FZRA,SN TS,FZRA +TS,+FZRA,+SN